Time;durP1;ratioP1;P1;durP2;ratioP2;P2;SDS_P1;SDS_P2;PMS_P1;PMS_P2;Temp;Humidity;BMP_temperature;BMP_pressure;BME280_temperature;BME280_humidity;BME280_pressure;Samples;Min_cycle;Max_cycle;Signal;HPM_P1;HPM_P2
2021/05/05 00:02:08;;;;;;;3.95;3.20;;;;;;;33.59;17.04;94098.53;5056150;28;20056;-65
2021/05/05 00:04:35;;;;;;;4.75;3.10;;;;;;;32.20;17.63;94083.19;5042467;28;20051;-69
2021/05/05 00:07:02;;;;;;;3.25;2.60;;;;;;;33.57;16.61;94092.81;5056234;28;20110;-69
2021/05/05 00:09:29;;;;;;;5.80;2.60;;;;;;;33.27;16.90;94085.28;5056337;28;20056;-48
2021/05/05 00:11:56;;;;;;;3.72;2.95;;;;;;;33.56;16.69;94091.28;5056384;28;20061;-61
2021/05/05 00:14:23;;;;;;;5.00;3.22;;;;;;;32.34;18.07;94082.06;5055791;28;20059;-68
2021/05/05 00:16:51;;;;;;;5.07;3.50;;;;;;;31.93;18.06;94074.72;5056152;28;20071;-69
2021/05/05 00:19:18;;;;;;;5.30;3.53;;;;;;;32.92;17.44;94082.56;5056031;28;20052;-58
2021/05/05 00:21:45;;;;;;;8.40;3.22;;;;;;;32.37;17.74;94071.13;5055883;28;20041;-72
2021/05/05 00:24:13;;;;;;;7.03;3.55;;;;;;;32.76;16.87;94074.56;5055862;28;20041;-69
2021/05/05 00:26:40;;;;;;;5.32;3.17;;;;;;;33.05;17.09;94074.41;5056111;28;20041;-58
2021/05/05 00:29:08;;;;;;;8.45;3.38;;;;;;;32.05;17.90;94077.47;5055761;28;20056;-49
2021/05/05 00:31:35;;;;;;;4.72;3.20;;;;;;;31.45;18.61;94073.69;5054955;28;20056;-73
2021/05/05 00:34:07;;;;;;;4.82;3.50;;;;;;;31.93;18.39;94069.31;5055711;28;20379;-73
2021/05/05 00:36:35;;;;;;;5.95;2.85;;;;;;;33.23;16.86;94068.41;5055959;28;20041;-70
2021/05/05 00:39:04;;;;;;;4.03;3.28;;;;;;;33.11;16.77;94064.56;5038489;28;20057;-68
2021/05/05 00:41:31;;;;;;;4.05;3.28;;;;;;;32.00;18.18;94061.00;5055949;28;20049;-69
2021/05/05 00:43:58;;;;;;;5.57;3.42;;;;;;;31.40;18.82;94058.78;5055831;28;20084;-74
2021/05/05 00:46:25;;;;;;;6.78;3.63;;;;;;;31.24;19.29;94062.28;5055691;28;20052;-73
2021/05/05 00:48:52;;;;;;;5.22;3.35;;;;;;;32.97;17.30;94046.06;5040274;28;20445;-73
2021/05/05 00:51:19;;;;;;;5.13;3.15;;;;;;;31.85;18.26;94047.91;5035685;28;20046;-73
2021/05/05 00:53:47;;;;;;;4.60;3.33;;;;;;;33.39;16.63;94043.91;5035556;28;20061;-73
2021/05/05 00:56:14;;;;;;;6.53;3.20;;;;;;;33.10;16.82;94047.56;5053642;28;20047;-68
2021/05/05 00:58:42;;;;;;;4.90;3.42;;;;;;;32.29;18.42;94048.22;5038006;28;20041;-70
2021/05/05 01:01:09;;;;;;;5.20;3.20;;;;;;;32.27;17.77;94039.78;5055455;28;20049;-70
2021/05/05 01:03:37;;;;;;;5.03;3.03;;;;;;;32.57;17.31;94029.56;5046497;28;20053;-73
2021/05/05 01:06:06;;;;;;;5.75;3.10;;;;;;;31.77;18.42;94035.81;5055117;28;20044;-74
2021/05/05 01:08:34;;;;;;;3.90;3.10;;;;;;;31.42;18.67;94036.75;5055189;28;20056;-70
2021/05/05 01:11:02;;;;;;;5.82;2.53;;;;;;;31.55;18.34;94032.16;5055416;28;20052;-67
2021/05/05 01:13:31;;;;;;;5.70;2.80;;;;;;;33.39;15.99;94043.91;5055254;28;20060;-70
2021/05/05 01:15:59;;;;;;;3.17;2.40;;;;;;;32.65;16.95;94038.97;5055024;28;20044;-68
2021/05/05 01:18:28;;;;;;;4.82;2.80;;;;;;;33.01;16.69;94036.63;5055142;28;20059;-69
2021/05/05 01:20:59;;;;;;;3.15;2.22;;;;;;;32.58;16.63;94033.78;5037805;28;20056;-51
2021/05/05 01:23:28;;;;;;;3.80;2.40;;;;;;;33.00;16.52;94024.28;5054176;28;20071;-68
2021/05/05 01:25:55;;;;;;;7.43;2.33;;;;;;;31.52;17.69;94027.59;5055050;28;20048;-69
2021/05/05 01:28:23;;;;;;;3.88;2.42;;;;;;;33.29;16.23;94028.72;5054945;28;20045;-55
2021/05/05 01:30:51;;;;;;;5.22;2.17;;;;;;;31.78;17.58;94031.91;5054939;28;20455;-59
2021/05/05 01:33:19;;;;;;;3.13;2.47;;;;;;;32.99;16.27;94019.31;5054826;28;20068;-70
2021/05/05 01:35:48;;;;;;;5.43;2.13;;;;;;;31.81;17.59;94020.25;5037373;28;20053;-51
2021/05/05 01:38:16;;;;;;;3.38;2.47;;;;;;;32.84;16.85;94021.00;5039276;28;20068;-49
2021/05/05 01:40:45;;;;;;;3.47;2.35;;;;;;;32.27;17.18;94020.84;5021787;28;20046;-48
2021/05/05 01:43:12;;;;;;;2.95;2.63;;;;;;;32.37;16.83;94025.16;5039176;28;20056;-69
2021/05/05 01:45:41;;;;;;;3.90;2.60;;;;;;;33.27;16.11;94028.41;5032527;28;20037;-67
2021/05/05 01:48:10;;;;;;;4.93;2.40;;;;;;;32.99;16.27;94022.78;5041490;28;20056;-69
2021/05/05 01:50:38;;;;;;;2.75;2.13;;;;;;;32.41;17.12;94017.69;5059024;28;20391;-67
2021/05/05 01:53:05;;;;;;;3.83;2.50;;;;;;;32.11;17.45;94012.81;5059041;28;20041;-70
2021/05/05 01:55:34;;;;;;;4.72;2.35;;;;;;;31.78;17.77;94013.00;5041002;28;20471;-73
2021/05/05 01:58:02;;;;;;;3.90;2.50;;;;;;;32.49;17.29;94013.56;5040582;28;20379;-73
2021/05/05 02:00:33;;;;;;;4.05;2.67;;;;;;;32.08;17.40;94013.66;5041326;28;20045;-69
2021/05/05 02:03:09;;;;;;;2.75;2.25;;;;;;;32.58;17.04;94010.19;5058373;28;20064;-60
2021/05/05 02:05:54;;;;;;;5.35;2.75;;;;;;;31.84;17.62;94008.56;5040819;28;20036;-67
2021/05/05 02:08:44;;;;;;;3.17;2.20;;;;;;;32.28;17.23;93999.97;5058673;28;20053;-69
2021/05/05 02:11:12;;;;;;;3.53;2.40;;;;;;;33.14;16.87;94000.66;5058679;28;20053;-69
2021/05/05 02:13:39;;;;;;;2.90;2.35;;;;;;;32.07;17.65;94004.03;5058629;28;20048;-54
2021/05/05 02:16:08;;;;;;;4.38;2.58;;;;;;;33.04;16.97;93997.84;5040526;28;20452;-69
2021/05/05 02:18:40;;;;;;;4.63;2.47;;;;;;;32.94;16.84;94000.94;5040743;28;20436;-69
2021/05/05 02:21:07;;;;;;;5.50;2.40;;;;;;;33.05;17.26;93999.38;5058299;28;20060;-54
2021/05/05 02:23:35;;;;;;;5.38;3.03;;;;;;;32.13;17.67;94005.78;5058408;28;20380;-58
2021/05/05 02:26:03;;;;;;;4.03;2.97;;;;;;;33.17;17.04;93999.75;5058127;28;20075;-69
2021/05/05 02:28:31;;;;;;;3.00;2.40;;;;;;;32.65;17.40;94004.56;5058220;28;20045;-70
2021/05/05 02:31:12;;;;;;;4.28;2.80;;;;;;;33.49;16.63;93988.56;5058082;28;20071;-70
2021/05/05 02:33:40;;;;;;;3.72;2.30;;;;;;;32.63;17.29;94006.19;5049767;28;20048;-57
2021/05/05 02:36:08;;;;;;;4.10;2.72;;;;;;;32.75;17.09;93997.25;5057667;28;20465;-63
2021/05/05 02:38:37;;;;;;;4.25;2.45;;;;;;;31.56;18.46;94010.13;5040395;28;20048;-54
2021/05/05 02:41:07;;;;;;;3.72;2.47;;;;;;;32.38;17.93;94001.56;5057912;28;20460;-50
2021/05/05 02:43:34;;;;;;;4.05;2.78;;;;;;;32.00;18.14;93999.59;5040450;28;20486;-69
2021/05/05 02:46:01;;;;;;;3.42;2.50;;;;;;;32.06;18.18;94002.53;5057693;28;20376;-73
2021/05/05 02:48:29;;;;;;;3.15;2.45;;;;;;;33.14;17.54;94003.34;5057792;28;20045;-73
2021/05/05 02:50:56;;;;;;;4.78;2.70;;;;;;;32.04;18.55;94004.91;5057985;28;20048;-73
2021/05/05 02:53:24;;;;;;;5.00;2.60;;;;;;;31.60;18.99;94004.59;5057978;28;20041;-73
2021/05/05 02:55:51;;;;;;;3.63;2.58;;;;;;;31.99;18.64;93997.31;5040334;28;20049;-73
2021/05/05 02:58:18;;;;;;;3.40;2.90;;;;;;;32.71;17.79;93994.69;5057371;28;20359;-72
2021/05/05 03:00:45;;;;;;;5.70;2.70;;;;;;;31.58;19.29;93996.19;5057708;28;20045;-74
2021/05/05 03:03:12;;;;;;;4.82;2.90;;;;;;;31.40;19.93;94001.31;5052690;28;20502;-73
2021/05/05 03:05:39;;;;;;;4.57;3.15;;;;;;;31.56;19.07;94006.66;5057608;28;20045;-74
2021/05/05 03:08:07;;;;;;;4.90;3.00;;;;;;;31.03;20.21;93989.94;5057236;28;20440;-47
2021/05/05 03:10:34;;;;;;;6.25;3.40;;;;;;;30.81;20.02;94000.53;5057670;28;20052;-62
2021/05/05 03:13:01;;;;;;;4.90;3.17;;;;;;;32.39;18.21;93993.00;5057444;28;20064;-70
2021/05/05 03:15:28;;;;;;;5.95;3.30;;;;;;;30.90;19.85;93999.91;5057379;28;20052;-61
2021/05/05 03:17:55;;;;;;;4.65;3.33;;;;;;;32.09;18.95;94001.66;5056951;28;20059;-58
2021/05/05 03:20:22;;;;;;;6.03;3.45;;;;;;;30.30;20.95;93996.72;5057280;28;20048;-54
2021/05/05 03:22:50;;;;;;;4.50;3.22;;;;;;;31.26;19.89;93997.81;5057295;28;20371;-52
2021/05/05 03:25:17;;;;;;;6.15;3.70;;;;;;;30.75;20.13;94001.47;5039589;28;20464;-70
2021/05/05 03:27:44;;;;;;;5.68;3.30;;;;;;;31.24;19.64;93994.81;5056806;28;20443;-74
2021/05/05 03:30:12;;;;;;;5.15;3.58;;;;;;;30.85;19.98;93997.72;5057324;28;20044;-54
2021/05/05 03:32:39;;;;;;;6.25;4.10;;;;;;;31.44;19.36;93999.25;5056476;28;20053;-61
2021/05/05 03:35:07;;;;;;;4.35;3.08;;;;;;;31.47;19.39;93990.31;5056999;28;20049;-73
2021/05/05 03:37:34;;;;;;;5.18;3.42;;;;;;;31.66;19.09;93997.47;5056579;28;20364;-73
2021/05/05 03:40:04;;;;;;;5.35;3.28;;;;;;;31.16;20.10;94004.25;5057068;28;20057;-73
2021/05/05 03:42:31;;;;;;;6.68;4.15;;;;;;;31.19;19.97;93992.59;5056913;28;20360;-69
2021/05/05 03:44:59;;;;;;;6.35;3.72;;;;;;;31.10;19.94;93995.13;5055858;28;20052;-48
2021/05/05 03:47:27;;;;;;;5.53;3.63;;;;;;;30.84;20.73;93993.50;5047960;28;20067;-73
2021/05/05 03:49:54;;;;;;;7.78;3.55;;;;;;;31.02;20.54;93993.06;5035970;28;20049;-74
2021/05/05 03:52:21;;;;;;;8.50;3.20;;;;;;;32.31;19.28;93991.75;5036785;28;20376;-74
2021/05/05 03:54:48;;;;;;;4.07;3.28;;;;;;;30.91;20.83;94009.50;5036666;28;20053;-73
2021/05/05 03:57:15;;;;;;;5.20;3.30;;;;;;;32.35;19.25;94014.00;5045086;28;20049;-73
2021/05/05 03:59:42;;;;;;;4.20;3.17;;;;;;;31.76;20.05;94015.38;5056366;28;20076;-69
2021/05/05 04:02:09;;;;;;;6.32;3.83;;;;;;;31.45;20.05;94025.09;5056267;28;20059;-68
2021/05/05 04:04:37;;;;;;;4.70;3.33;;;;;;;31.35;20.40;94026.91;5056431;28;20052;-61
2021/05/05 04:07:04;;;;;;;4.60;2.97;;;;;;;31.75;20.29;94016.56;5056179;28;20059;-48
2021/05/05 04:09:31;;;;;;;5.72;3.55;;;;;;;31.98;20.06;94023.59;5056199;28;20048;-70
2021/05/05 04:11:58;;;;;;;4.32;3.40;;;;;;;31.31;20.97;94025.47;5056514;28;20456;-69
2021/05/05 04:14:25;;;;;;;5.82;3.75;;;;;;;30.77;21.50;94020.69;5056314;28;20048;-69
2021/05/05 04:16:54;;;;;;;6.70;3.58;;;;;;;30.90;21.08;94014.16;5055832;28;20049;-70
2021/05/05 04:19:21;;;;;;;6.85;3.90;;;;;;;31.16;20.75;94015.06;5055845;28;20041;-70
2021/05/05 04:21:49;;;;;;;4.85;3.90;;;;;;;31.13;20.68;94025.91;5056165;28;20068;-57
2021/05/05 04:24:17;;;;;;;6.28;3.72;;;;;;;30.82;21.05;94012.06;5043389;28;20045;-67
2021/05/05 04:26:45;;;;;;;4.45;3.63;;;;;;;31.33;20.86;94017.72;5039967;28;20060;-69
2021/05/05 04:29:13;;;;;;;4.93;3.70;;;;;;;31.73;20.19;94018.91;5055450;28;20052;-69
2021/05/05 04:31:40;;;;;;;7.95;5.03;;;;;;;33.44;18.09;94018.19;5047868;28;20053;-68
2021/05/05 04:34:07;;;;;;;7.18;4.95;;;;;;;33.94;17.91;94017.16;5040166;28;20045;-52
2021/05/05 04:36:34;;;;;;;7.68;4.60;;;;;;;31.84;19.68;94018.63;5038012;28;20045;-69
2021/05/05 04:39:02;;;;;;;8.20;4.97;;;;;;;30.84;21.12;94010.47;5038962;28;20053;-68
2021/05/05 04:41:29;;;;;;;6.35;5.10;;;;;;;32.79;19.24;94006.84;5035887;28;20045;-68
2021/05/05 04:43:56;;;;;;;9.15;5.47;;;;;;;33.89;17.78;93999.53;5035855;28;20061;-69
2021/05/05 04:46:23;;;;;;;7.45;4.80;;;;;;;33.04;18.80;94008.69;5035947;28;20044;-58
2021/05/05 04:48:50;;;;;;;6.47;4.72;;;;;;;33.19;18.57;94008.19;5036124;28;20053;-66
2021/05/05 04:51:18;;;;;;;8.15;4.88;;;;;;;32.31;19.16;94018.78;5035612;28;20468;-53
2021/05/05 04:53:45;;;;;;;7.53;4.63;;;;;;;32.08;19.84;94021.78;5035605;28;20045;-53
2021/05/05 04:56:12;;;;;;;7.47;5.13;;;;;;;31.56;20.38;94020.91;5035398;28;20475;-51
2021/05/05 04:58:39;;;;;;;7.18;5.15;;;;;;;31.99;19.84;94018.94;5036514;28;20052;-51
2021/05/05 05:01:06;;;;;;;7.88;5.47;;;;;;;31.75;20.23;94026.59;5055346;28;20059;-58
2021/05/05 05:03:33;;;;;;;9.18;5.32;;;;;;;33.79;17.86;94021.56;5055168;28;20051;-53
2021/05/05 05:06:01;;;;;;;8.07;6.20;;;;;;;35.57;16.24;94030.81;5036141;28;20049;-55
2021/05/05 05:08:28;;;;;;;9.07;5.47;;;;;;;33.25;19.17;94028.09;5046070;28;20057;-50
2021/05/05 05:10:55;;;;;;;7.32;5.15;;;;;;;31.72;20.35;94022.78;5039584;28;20464;-54
2021/05/05 05:13:22;;;;;;;7.53;5.43;;;;;;;31.87;20.17;94029.31;5035269;28;20052;-53
2021/05/05 05:15:50;;;;;;;7.68;5.75;;;;;;;31.69;20.56;94028.28;5035233;28;20057;-53
2021/05/05 05:18:17;;;;;;;7.60;5.60;;;;;;;31.20;21.00;94031.16;5050064;28;20047;-52
2021/05/05 05:20:44;;;;;;;10.38;6.00;;;;;;;31.74;20.15;94033.94;5036428;28;20060;-54
2021/05/05 05:23:11;;;;;;;9.10;5.93;;;;;;;31.47;20.80;94025.41;5035127;28;20048;-50
2021/05/05 05:25:38;;;;;;;10.13;5.90;;;;;;;31.90;21.47;94023.06;5035273;28;20056;-53
2021/05/05 05:28:05;;;;;;;7.97;5.72;;;;;;;31.74;21.29;94036.63;5048112;28;20045;-59
2021/05/05 05:30:32;;;;;;;8.10;6.20;;;;;;;32.28;20.15;94041.28;5055121;28;20048;-51
2021/05/05 05:33:00;;;;;;;8.73;7.43;;;;;;;32.11;20.58;94037.13;5054808;28;20065;-51
2021/05/05 05:35:27;;;;;;;13.38;9.98;;;;;;;32.19;20.57;94038.41;5037280;28;20065;-51
2021/05/05 05:37:54;;;;;;;10.80;8.75;;;;;;;33.90;19.05;94035.53;5054631;28;20049;-56
2021/05/05 05:40:21;;;;;;;9.98;8.95;;;;;;;34.22;18.76;94042.44;5055010;28;20049;-54
2021/05/05 05:42:48;;;;;;;9.77;7.88;;;;;;;32.88;19.46;94041.34;5055052;28;20049;-53
2021/05/05 05:45:18;;;;;;;11.15;8.77;;;;;;;33.38;18.98;94047.81;5042975;28;20364;-56
2021/05/05 05:47:46;;;;;;;11.48;8.55;;;;;;;32.50;20.50;94052.19;5044383;28;20056;-51
2021/05/05 05:50:14;;;;;;;12.25;8.65;;;;;;;32.69;20.30;94053.91;5055059;28;20391;-52
2021/05/05 05:52:41;;;;;;;11.60;9.18;;;;;;;35.07;17.67;94055.41;5054909;28;20475;-50
2021/05/05 05:55:10;;;;;;;11.35;9.27;;;;;;;34.20;18.72;94056.47;5054940;28;20060;-50
2021/05/05 05:57:39;;;;;;;12.25;9.10;;;;;;;34.27;18.32;94067.03;5054429;28;20045;-54
2021/05/05 06:00:12;;;;;;;11.73;9.98;;;;;;;33.17;19.42;94076.34;5054806;28;20049;-52
2021/05/05 06:02:40;;;;;;;17.30;9.82;;;;;;;33.95;18.34;94078.31;5054478;28;20053;-51
2021/05/05 06:05:08;;;;;;;12.40;10.05;;;;;;;35.21;17.10;94064.94;5054922;28;20060;-57
2021/05/05 06:07:35;;;;;;;12.48;9.80;;;;;;;34.77;18.00;94059.69;5053531;28;20363;-56
2021/05/05 06:10:04;;;;;;;10.23;8.50;;;;;;;35.85;16.51;94056.78;5034923;28;20456;-52
2021/05/05 06:12:32;;;;;;;12.27;8.70;;;;;;;35.06;17.74;94044.97;5034801;28;20056;-55
2021/05/05 06:14:59;;;;;;;10.80;9.18;;;;;;;35.59;17.02;94050.13;5017529;28;20396;-60
2021/05/05 06:17:26;;;;;;;10.68;9.15;;;;;;;34.36;18.04;94049.34;5035024;28;20049;-59
2021/05/05 06:19:53;;;;;;;11.20;8.27;;;;;;;34.48;17.46;94045.75;5001652;28;20056;-58
2021/05/05 06:22:20;;;;;;;9.68;8.55;;;;;;;34.96;17.32;94044.22;5021075;28;20045;-55
2021/05/05 06:24:48;;;;;;;11.63;8.52;;;;;;;35.69;16.81;94035.34;5037349;28;20053;-59
2021/05/05 06:27:15;;;;;;;11.70;8.00;;;;;;;36.05;16.99;94032.56;5042367;28;20041;-57
2021/05/05 06:29:42;;;;;;;9.02;7.20;;;;;;;34.98;17.62;94030.94;5040533;28;20056;-57
2021/05/05 06:32:09;;;;;;;9.07;7.30;;;;;;;35.41;16.77;94031.91;5057984;28;20056;-57
2021/05/05 06:34:36;;;;;;;9.55;6.68;;;;;;;35.71;17.11;94032.91;5057662;28;20085;-55
2021/05/05 06:37:03;;;;;;;13.65;6.93;;;;;;;35.28;17.62;94037.44;5057795;28;20049;-58
2021/05/05 06:39:31;;;;;;;7.18;6.45;;;;;;;35.54;16.85;94033.25;5058019;28;20048;-55
2021/05/05 06:41:59;;;;;;;9.68;7.22;;;;;;;36.01;16.48;94034.69;5057959;28;20044;-46
2021/05/05 06:44:27;;;;;;;7.10;6.32;;;;;;;36.58;15.80;94034.78;5058063;28;20056;-54
2021/05/05 06:46:57;;;;;;;8.98;5.80;;;;;;;36.26;16.31;94030.06;5057480;28;20059;-54
2021/05/05 06:49:24;;;;;;;8.13;5.53;;;;;;;36.07;16.26;94035.56;5057740;28;20057;-58
2021/05/05 06:51:52;;;;;;;8.20;6.20;;;;;;;37.13;15.63;94020.09;5039334;28;20060;-54
2021/05/05 06:54:19;;;;;;;8.50;5.72;;;;;;;37.01;15.33;94019.88;5037991;28;20464;-54
2021/05/05 06:56:47;;;;;;;7.40;5.90;;;;;;;36.57;15.70;94008.78;5037920;28;20056;-55
2021/05/05 06:59:14;;;;;;;10.95;5.50;;;;;;;37.02;15.46;94012.47;5057169;28;20049;-55
2021/05/05 07:01:41;;;;;;;6.68;5.93;;;;;;;35.99;16.52;93999.03;5056635;28;20056;-54
2021/05/05 07:04:09;;;;;;;8.68;6.28;;;;;;;35.76;16.79;94013.28;5038793;28;20034;-56
2021/05/05 07:06:37;;;;;;;7.63;5.30;;;;;;;36.19;16.67;94014.09;5037732;28;20065;-59
2021/05/05 07:09:05;;;;;;;6.95;5.70;;;;;;;35.81;16.38;93999.81;5042290;28;20041;-60
2021/05/05 07:11:35;;;;;;;8.25;6.80;;;;;;;35.11;17.04;93998.97;5037581;28;20045;-54
2021/05/05 07:14:03;;;;;;;9.70;5.82;;;;;;;36.03;16.96;94002.34;5037674;28;20050;-60
2021/05/05 07:16:31;;;;;;;8.35;5.68;;;;;;;35.72;16.47;94004.53;5037348;28;20057;-55
2021/05/05 07:18:58;;;;;;;8.02;5.47;;;;;;;36.65;16.11;94012.66;5054123;28;20045;-56
2021/05/05 07:21:26;;;;;;;9.18;4.85;;;;;;;36.34;15.83;94009.50;5057183;28;20060;-55
2021/05/05 07:23:53;;;;;;;8.68;7.15;;;;;;;37.61;15.14;94001.69;5057224;28;20116;-65
2021/05/05 07:26:20;;;;;;;5.53;4.95;;;;;;;38.35;15.17;94007.13;5046891;28;20041;-58
2021/05/05 07:28:47;;;;;;;6.50;4.85;;;;;;;37.17;15.05;94002.34;5052203;28;20053;-57
2021/05/05 07:31:15;;;;;;;7.28;4.50;;;;;;;37.58;15.11;93992.47;5056498;28;20068;-65
2021/05/05 07:33:42;;;;;;;6.57;4.80;;;;;;;38.03;14.64;93995.22;5056574;28;20052;-64
2021/05/05 07:36:18;;;;;;;5.30;4.18;;;;;;;38.25;14.95;93998.28;5056849;28;20049;-63
2021/05/05 07:49:25;;;;;;;6.22;4.10;;;;;;;36.97;14.78;93989.34;5056292;28;20064;-65
2021/05/05 07:51:53;;;;;;;5.10;3.90;;;;;;;38.40;14.38;93979.91;5056682;28;20056;-65
2021/05/05 07:54:22;;;;;;;6.00;3.72;;;;;;;38.19;14.84;93979.09;5056661;28;20061;-64
2021/05/05 07:56:49;;;;;;;9.45;4.07;;;;;;;38.02;15.02;93977.34;5056655;28;20440;-49
2021/05/05 07:59:17;;;;;;;9.48;4.07;;;;;;;37.67;14.51;93977.97;5049300;28;20053;-63
2021/05/05 08:01:44;;;;;;;7.85;4.00;;;;;;;37.61;14.73;93982.59;5035994;28;20053;-51
2021/05/05 08:04:11;;;;;;;6.82;3.90;;;;;;;36.52;15.35;93986.88;5053226;28;20543;-64
2021/05/05 08:06:38;;;;;;;6.47;3.42;;;;;;;37.48;14.87;93984.84;5056528;28;20479;-64
2021/05/05 08:09:05;;;;;;;11.02;4.45;;;;;;;37.06;15.91;93974.88;5056031;28;20060;-50
2021/05/05 08:11:32;;;;;;;7.25;3.85;;;;;;;37.89;15.24;93972.91;5056328;28;20045;-54
2021/05/05 08:13:59;;;;;;;6.05;4.05;;;;;;;37.55;14.99;93965.41;5056311;28;20060;-63
2021/05/05 08:16:27;;;;;;;6.40;3.88;;;;;;;38.30;14.10;93956.69;5056223;28;20048;-62
2021/05/05 08:18:54;;;;;;;6.78;4.03;;;;;;;37.92;14.74;93947.44;5034894;28;20071;-65
2021/05/05 08:21:22;;;;;;;4.72;3.72;;;;;;;38.93;13.29;93954.28;5036134;28;20056;-64
2021/05/05 08:23:49;;;;;;;6.75;3.20;;;;;;;38.20;14.12;93939.69;5036231;28;20060;-65
2021/05/05 08:26:16;;;;;;;4.97;3.15;;;;;;;38.38;13.71;93952.34;5036197;28;20041;-63
2021/05/05 08:28:43;;;;;;;7.47;3.45;;;;;;;38.24;13.64;93950.38;5048496;28;20044;-50
2021/05/05 08:31:11;;;;;;;5.70;3.40;;;;;;;38.32;13.39;93948.78;5021765;28;20056;-54
2021/05/05 08:33:39;;;;;;;7.15;4.15;;;;;;;37.94;14.13;93941.50;5048892;28;20452;-65
2021/05/05 08:36:06;;;;;;;6.82;4.20;;;;;;;38.65;13.00;93951.22;5055602;28;20072;-67
2021/05/05 08:38:33;;;;;;;8.30;4.55;;;;;;;38.67;13.23;93964.41;5055398;28;20055;-70
2021/05/05 08:41:00;;;;;;;6.38;4.40;;;;;;;38.40;13.66;93960.78;5039184;28;20049;-68
2021/05/05 08:43:27;;;;;;;6.82;5.35;;;;;;;38.51;13.50;93950.00;5018435;28;20088;-67
2021/05/05 08:45:58;;;;;;;8.48;4.13;;;;;;;39.41;12.41;93956.56;5034888;28;20048;-68
2021/05/05 08:48:26;;;;;;;3.35;3.05;;;;;;;38.28;12.57;93944.75;5027914;28;20048;-65
2021/05/05 08:50:53;;;;;;;6.55;4.88;;;;;;;38.25;13.09;93954.63;5055625;28;20044;-70
2021/05/05 08:53:21;;;;;;;5.90;4.38;;;;;;;38.90;12.94;93952.50;5038081;28;20231;-70
2021/05/05 08:55:48;;;;;;;8.02;4.05;;;;;;;38.73;13.35;93959.75;5035699;28;20408;-54
2021/05/05 08:58:15;;;;;;;6.47;3.70;;;;;;;37.87;14.44;93958.25;5043353;28;20471;-65
2021/05/05 09:00:42;;;;;;;6.90;3.65;;;;;;;38.02;14.49;93952.78;5038442;28;20053;-68
2021/05/05 09:03:10;;;;;;;5.80;3.60;;;;;;;37.61;14.44;93947.16;5042376;28;20059;-69
2021/05/05 09:05:53;;;;;;;5.90;3.90;;;;;;;37.64;14.42;93946.22;5055577;28;20045;-69
2021/05/05 09:08:21;;;;;;;5.68;3.10;;;;;;;37.72;14.76;93933.72;5053287;28;20360;-68
2021/05/05 09:11:07;;;;;;;7.57;3.50;;;;;;;37.41;14.29;93941.59;5043471;28;20049;-66
2021/05/05 09:13:56;;;;;;;4.88;3.47;;;;;;;38.22;13.87;93937.22;5055564;28;20448;-66
2021/05/05 09:16:30;;;;;;;8.18;3.22;;;;;;;38.11;13.17;93947.97;5055183;28;20045;-58
2021/05/05 09:19:11;;;;;;;4.35;3.00;;;;;;;38.00;12.80;93949.75;5054840;28;20049;-67
2021/05/05 09:21:45;;;;;;;7.13;3.63;;;;;;;38.04;13.31;93939.44;5035323;28;20045;-52
2021/05/05 09:24:30;;;;;;;8.38;2.92;;;;;;;37.62;13.53;93937.75;5053378;28;20831;-47
2021/05/05 09:27:02;;;;;;;6.72;3.83;;;;;;;37.52;14.16;93944.53;5055056;28;20040;-64
2021/05/05 09:29:47;;;;;;;5.95;4.63;;;;;;;38.82;13.72;93935.03;5044965;28;20052;-67
2021/05/05 09:32:17;;;;;;;8.30;5.95;;;;;;;39.62;13.09;93952.56;5035947;28;20061;-71
2021/05/05 09:34:59;;;;;;;9.80;5.28;;;;;;;39.08;12.89;93941.31;5043416;28;20049;-55
2021/05/05 09:37:27;;;;;;;6.85;4.68;;;;;;;38.27;13.63;93940.53;5045127;28;20376;-59
2021/05/05 09:40:04;;;;;;;6.07;4.47;;;;;;;38.31;13.81;93941.81;5038253;28;20056;-71
2021/05/05 09:42:33;;;;;;;7.57;4.85;;;;;;;37.65;14.18;93928.63;5035005;28;20053;-68
2021/05/05 09:45:08;;;;;;;8.30;4.40;;;;;;;38.31;13.99;93920.00;5035039;28;20061;-61
2021/05/05 09:47:46;;;;;;;6.47;4.53;;;;;;;37.64;14.48;93918.94;5035629;28;20441;-68
2021/05/05 09:50:28;;;;;;;6.97;4.47;;;;;;;37.98;13.67;93912.03;5054975;28;20064;-70
2021/05/05 09:53:24;;;;;;;7.35;3.92;;;;;;;37.60;15.17;93912.94;5054904;28;20361;-71
2021/05/05 09:55:54;;;;;;;9.57;4.68;;;;;;;37.86;14.57;93905.69;5056408;28;20052;-65
2021/05/05 09:58:30;;;;;;;6.53;4.05;;;;;;;38.73;13.78;93913.31;5040834;28;20448;-61
2021/05/05 10:01:07;;;;;;;7.97;4.15;;;;;;;37.34;15.04;93907.31;5058793;28;20383;-68
2021/05/05 10:03:36;;;;;;;7.65;4.22;;;;;;;38.12;14.21;93910.50;5058635;28;20033;-70
2021/05/05 10:06:21;;;;;;;6.82;4.15;;;;;;;36.28;15.52;93907.94;5058802;28;20059;-67
2021/05/05 10:08:51;;;;;;;4.82;3.47;;;;;;;36.78;15.41;93917.16;5058326;28;20053;-64
2021/05/05 10:11:23;;;;;;;7.85;3.70;;;;;;;36.05;16.09;93906.69;5058678;28;20053;-66
2021/05/05 10:13:53;;;;;;;6.85;3.95;;;;;;;37.57;14.91;93905.69;5058671;28;20041;-69
2021/05/05 10:16:21;;;;;;;7.10;3.53;;;;;;;37.22;14.82;93900.91;5058566;28;20048;-66
2021/05/05 10:18:49;;;;;;;9.52;4.10;;;;;;;36.74;15.41;93898.25;5040584;28;20359;-51
2021/05/05 10:21:20;;;;;;;6.93;3.60;;;;;;;36.25;15.70;93892.53;5058365;28;20061;-67
2021/05/05 10:23:48;;;;;;;6.03;3.47;;;;;;;37.22;14.54;93887.28;5058686;28;20045;-61
2021/05/05 10:26:18;;;;;;;6.18;4.35;;;;;;;36.77;14.74;93882.22;5058444;28;20760;-55
2021/05/05 10:28:46;;;;;;;11.60;8.13;;;;;;;37.22;13.92;93878.34;5058085;28;20355;-67
2021/05/05 10:31:19;;;;;;;10.27;6.85;;;;;;;37.50;14.41;93876.09;5058120;28;20056;-70
2021/05/05 10:33:49;;;;;;;7.65;4.78;;;;;;;37.42;13.96;93874.97;5036913;28;20071;-67
2021/05/05 10:36:29;;;;;;;6.88;4.45;;;;;;;37.35;14.13;93879.56;5058134;28;20041;-67
2021/05/05 10:38:57;;;;;;;7.70;4.22;;;;;;;38.13;12.93;93880.03;5057748;28;20059;-67
2021/05/05 10:41:25;;;;;;;8.02;4.18;;;;;;;37.63;13.80;93879.28;5058067;28;20045;-63
2021/05/05 10:43:56;;;;;;;8.40;3.70;;;;;;;38.12;13.66;93880.50;5040797;28;20383;-70
2021/05/05 10:46:28;;;;;;;4.95;3.80;;;;;;;37.34;13.54;93886.25;5058243;28;20475;-70
2021/05/05 10:49:03;;;;;;;5.65;3.50;;;;;;;37.93;13.61;93872.56;5057819;28;20083;-70
2021/05/05 10:51:47;;;;;;;7.63;3.75;;;;;;;37.66;13.47;93875.59;5057881;28;20064;-71
2021/05/05 10:54:16;;;;;;;7.90;3.53;;;;;;;37.47;13.62;93866.13;5058066;28;20048;-53
2021/05/05 10:57:11;;;;;;;7.47;3.25;;;;;;;37.97;13.58;93854.00;5057689;28;20052;-69
2021/05/05 11:00:02;;;;;;;5.57;3.55;;;;;;;38.36;14.16;93850.31;5057452;28;20479;-60
2021/05/05 11:02:38;;;;;;;7.65;3.50;;;;;;;38.18;13.77;93852.09;5057457;28;20384;-67
2021/05/05 11:05:08;;;;;;;6.55;3.65;;;;;;;38.24;13.91;93857.59;5049694;28;20057;-70
2021/05/05 11:07:58;;;;;;;4.28;3.22;;;;;;;38.55;12.64;93857.75;5036354;28;20474;-70
2021/05/05 11:10:37;;;;;;;4.10;3.22;;;;;;;38.20;13.57;93857.06;5037593;28;20367;-67
2021/05/05 11:13:14;;;;;;;7.28;4.30;;;;;;;37.82;13.42;93836.94;5037561;28;20053;-66
2021/05/05 11:15:44;;;;;;;5.63;3.58;;;;;;;37.80;13.54;93855.75;5037547;28;20240;-67
2021/05/05 11:18:31;;;;;;;7.25;4.13;;;;;;;37.59;14.47;93848.72;5033888;28;20294;-67
2021/05/05 11:20:59;;;;;;;6.28;3.35;;;;;;;38.09;12.82;93848.72;5040431;28;20472;-70
2021/05/05 11:23:36;;;;;;;3.75;2.30;;;;;;;38.27;12.05;93842.28;5035783;28;20057;-67
2021/05/05 11:26:23;;;;;;;6.63;1.92;;;;;;;38.11;11.49;93840.81;5036411;28;20041;-68
2021/05/05 11:28:57;;;;;;;3.75;1.70;;;;;;;37.67;10.99;93825.28;5044210;28;20057;-67
2021/05/05 11:31:46;;;;;;;6.13;1.70;;;;;;;38.62;11.07;93823.06;5057132;28;20067;-67
2021/05/05 11:34:23;;;;;;;3.22;1.60;;;;;;;38.17;11.28;93825.28;5056852;28;20052;-66
2021/05/05 11:36:59;;;;;;;3.40;1.70;;;;;;;38.18;11.89;93834.97;5056704;28;20056;-67
2021/05/05 11:39:28;;;;;;;3.05;1.75;;;;;;;37.85;11.63;93851.63;5056125;28;20049;-68
2021/05/05 11:41:57;;;;;;;3.47;1.40;;;;;;;37.83;11.14;93833.00;5036877;28;20053;-56
2021/05/05 11:44:45;;;;;;;3.80;1.65;;;;;;;38.76;10.24;93839.38;5037021;28;20064;-67
2021/05/05 11:47:13;;;;;;;2.83;1.60;;;;;;;38.37;10.56;93825.28;5036711;28;20054;-59
2021/05/05 11:49:46;;;;;;;3.10;1.52;;;;;;;38.46;10.65;93832.56;5051066;28;20056;-71
2021/05/05 11:52:23;;;;;;;3.97;1.65;;;;;;;38.09;10.60;93815.97;5057243;28;20049;-71
2021/05/05 11:54:55;;;;;;;3.45;1.55;;;;;;;38.48;10.44;93821.91;5036435;28;20057;-71